sensor_id;sensor_type;location;lat;lon;timestamp;temperature;humidity
14031;DHT22;7090;49.436;8.490;2023-03-11T00:01:13;3.40;99.90
14031;DHT22;7090;49.436;8.490;2023-03-11T00:03:39;3.40;99.90
14031;DHT22;7090;49.436;8.490;2023-03-11T00:06:05;3.30;99.90
14031;DHT22;7090;49.436;8.490;2023-03-11T00:08:31;3.30;1.00
14031;DHT22;7090;49.436;8.490;2023-03-11T00:10:58;3.30;99.90
14031;DHT22;7090;49.436;8.490;2023-03-11T00:13:26;3.20;99.90
14031;DHT22;7090;49.436;8.490;2023-03-11T00:15:54;3.20;99.90
14031;DHT22;7090;49.436;8.490;2023-03-11T00:18:25;3.10;1.00
14031;DHT22;7090;49.436;8.490;2023-03-11T00:20:53;3.10;99.90
14031;DHT22;7090;49.436;8.490;2023-03-11T00:23:19;3.00;1.00
14031;DHT22;7090;49.436;8.490;2023-03-11T00:25:45;3.00;1.00
14031;DHT22;7090;49.436;8.490;2023-03-11T00:28:12;3.00;1.00
14031;DHT22;7090;49.436;8.490;2023-03-11T00:30:40;3.30;1.00
14031;DHT22;7090;49.436;8.490;2023-03-11T00:33:07;3.00;1.00
14031;DHT22;7090;49.436;8.490;2023-03-11T00:35:34;2.90;1.00
14031;DHT22;7090;49.436;8.490;2023-03-11T00:38:05;2.90;1.00
14031;DHT22;7090;49.436;8.490;2023-03-11T00:40:33;2.90;1.00
14031;DHT22;7090;49.436;8.490;2023-03-11T00:42:59;2.80;1.00
14031;DHT22;7090;49.436;8.490;2023-03-11T00:45:25;2.90;1.00
14031;DHT22;7090;49.436;8.490;2023-03-11T00:47:52;2.80;1.00
14031;DHT22;7090;49.436;8.490;2023-03-11T00:50:23;2.90;1.00
14031;DHT22;7090;49.436;8.490;2023-03-11T00:52:50;2.80;1.00
14031;DHT22;7090;49.436;8.490;2023-03-11T00:55:20;2.80;1.00
14031;DHT22;7090;49.436;8.490;2023-03-11T00:57:46;2.80;1.00
14031;DHT22;7090;49.436;8.490;2023-03-11T01:00:14;2.80;1.00
14031;DHT22;7090;49.436;8.490;2023-03-11T01:02:40;2.80;1.00
14031;DHT22;7090;49.436;8.490;2023-03-11T01:05:06;2.80;1.00
14031;DHT22;7090;49.436;8.490;2023-03-11T01:07:32;2.70;1.00
14031;DHT22;7090;49.436;8.490;2023-03-11T01:09:58;2.80;1.00
14031;DHT22;7090;49.436;8.490;2023-03-11T01:12:24;2.80;1.00
14031;DHT22;7090;49.436;8.490;2023-03-11T01:14:49;2.80;1.00
14031;DHT22;7090;49.436;8.490;2023-03-11T01:17:15;2.80;1.00
14031;DHT22;7090;49.436;8.490;2023-03-11T01:19:41;2.80;1.00
14031;DHT22;7090;49.436;8.490;2023-03-11T01:22:06;2.80;1.00
14031;DHT22;7090;49.436;8.490;2023-03-11T01:24:32;2.80;1.00
14031;DHT22;7090;49.436;8.490;2023-03-11T01:26:58;2.80;1.00
14031;DHT22;7090;49.436;8.490;2023-03-11T01:29:23;2.80;1.00
14031;DHT22;7090;49.436;8.490;2023-03-11T01:31:49;2.70;1.00
14031;DHT22;7090;49.436;8.490;2023-03-11T01:34:15;2.70;1.00
14031;DHT22;7090;49.436;8.490;2023-03-11T01:36:41;2.50;1.00
14031;DHT22;7090;49.436;8.490;2023-03-11T01:39:06;2.50;1.00
14031;DHT22;7090;49.436;8.490;2023-03-11T01:41:32;2.50;1.00
14031;DHT22;7090;49.436;8.490;2023-03-11T01:43:58;2.40;99.90
14031;DHT22;7090;49.436;8.490;2023-03-11T01:49:11;2.40;99.90
14031;DHT22;7090;49.436;8.490;2023-03-11T01:51:40;2.30;99.90
14031;DHT22;7090;49.436;8.490;2023-03-11T01:54:11;2.30;99.90
14031;DHT22;7090;49.436;8.490;2023-03-11T01:56:38;2.20;99.90
14031;DHT22;7090;49.436;8.490;2023-03-11T01:59:06;2.30;99.90
14031;DHT22;7090;49.436;8.490;2023-03-11T02:01:32;2.20;99.90
14031;DHT22;7090;49.436;8.490;2023-03-11T02:03:58;2.20;99.90
14031;DHT22;7090;49.436;8.490;2023-03-11T02:06:27;2.20;99.90
14031;DHT22;7090;49.436;8.490;2023-03-11T02:08:54;2.20;99.90
14031;DHT22;7090;49.436;8.490;2023-03-11T02:11:22;2.30;99.90
14031;DHT22;7090;49.436;8.490;2023-03-11T02:13:54;2.30;99.90
14031;DHT22;7090;49.436;8.490;2023-03-11T02:16:21;2.30;99.90
14031;DHT22;7090;49.436;8.490;2023-03-11T02:18:46;2.20;99.90
14031;DHT22;7090;49.436;8.490;2023-03-11T02:21:24;2.20;99.90
14031;DHT22;7090;49.436;8.490;2023-03-11T02:26:28;2.30;99.90
14031;DHT22;7090;49.436;8.490;2023-03-11T02:28:55;2.30;99.90
14031;DHT22;7090;49.436;8.490;2023-03-11T02:31:22;2.30;99.90
14031;DHT22;7090;49.436;8.490;2023-03-11T02:33:52;2.20;99.90
14031;DHT22;7090;49.436;8.490;2023-03-11T02:36:37;2.10;99.90
14031;DHT22;7090;49.436;8.490;2023-03-11T02:39:03;2.10;99.90
14031;DHT22;7090;49.436;8.490;2023-03-11T02:41:31;2.00;1.00
14031;DHT22;7090;49.436;8.490;2023-03-11T02:43:58;2.00;1.00
14031;DHT22;7090;49.436;8.490;2023-03-11T02:46:24;2.00;1.00
14031;DHT22;7090;49.436;8.490;2023-03-11T02:48:50;1.90;1.00
14031;DHT22;7090;49.436;8.490;2023-03-11T02:51:16;1.90;1.00
14031;DHT22;7090;49.436;8.490;2023-03-11T02:53:48;1.90;1.00
14031;DHT22;7090;49.436;8.490;2023-03-11T02:56:14;1.90;1.00
14031;DHT22;7090;49.436;8.490;2023-03-11T02:58:40;1.90;1.00
14031;DHT22;7090;49.436;8.490;2023-03-11T03:01:06;1.90;1.00
14031;DHT22;7090;49.436;8.490;2023-03-11T03:03:32;1.90;1.00
14031;DHT22;7090;49.436;8.490;2023-03-11T03:05:57;1.90;1.00
14031;DHT22;7090;49.436;8.490;2023-03-11T03:08:23;1.80;1.00
14031;DHT22;7090;49.436;8.490;2023-03-11T03:10:48;1.80;1.00
14031;DHT22;7090;49.436;8.490;2023-03-11T03:13:14;1.80;1.00
14031;DHT22;7090;49.436;8.490;2023-03-11T03:15:40;1.80;1.00
14031;DHT22;7090;49.436;8.490;2023-03-11T03:18:05;1.80;1.00
14031;DHT22;7090;49.436;8.490;2023-03-11T03:20:31;1.80;1.00
14031;DHT22;7090;49.436;8.490;2023-03-11T03:22:57;1.80;1.00
14031;DHT22;7090;49.436;8.490;2023-03-11T03:25:22;1.70;1.00
14031;DHT22;7090;49.436;8.490;2023-03-11T03:27:48;1.60;1.00
14031;DHT22;7090;49.436;8.490;2023-03-11T03:30:14;1.60;1.00
14031;DHT22;7090;49.436;8.490;2023-03-11T03:32:39;1.60;1.00
14031;DHT22;7090;49.436;8.490;2023-03-11T03:35:05;1.60;1.00
14031;DHT22;7090;49.436;8.490;2023-03-11T03:37:33;1.60;1.00
14031;DHT22;7090;49.436;8.490;2023-03-11T03:39:59;1.50;1.00
14031;DHT22;7090;49.436;8.490;2023-03-11T03:42:24;1.50;1.00
14031;DHT22;7090;49.436;8.490;2023-03-11T03:44:51;1.50;1.00
14031;DHT22;7090;49.436;8.490;2023-03-11T03:47:19;1.40;1.00
14031;DHT22;7090;49.436;8.490;2023-03-11T03:49:45;1.40;1.00
14031;DHT22;7090;49.436;8.490;2023-03-11T03:52:10;1.40;1.00
14031;DHT22;7090;49.436;8.490;2023-03-11T03:54:36;1.40;1.00
14031;DHT22;7090;49.436;8.490;2023-03-11T03:57:03;1.30;1.00
14031;DHT22;7090;49.436;8.490;2023-03-11T03:59:29;1.30;45.70
14031;DHT22;7090;49.436;8.490;2023-03-11T04:01:54;1.30;85.60
14031;DHT22;7090;49.436;8.490;2023-03-11T04:04:20;1.30;88.50
14031;DHT22;7090;49.436;8.490;2023-03-11T04:06:46;1.20;99.80
14031;DHT22;7090;49.436;8.490;2023-03-11T04:09:11;1.20;99.90
14031;DHT22;7090;49.436;8.490;2023-03-11T04:11:37;1.20;99.90
14031;DHT22;7090;49.436;8.490;2023-03-11T04:14:04;1.20;99.90
14031;DHT22;7090;49.436;8.490;2023-03-11T04:16:30;1.20;99.90
14031;DHT22;7090;49.436;8.490;2023-03-11T04:18:56;1.20;99.90
14031;DHT22;7090;49.436;8.490;2023-03-11T04:21:22;1.20;99.90
14031;DHT22;7090;49.436;8.490;2023-03-11T04:23:48;1.30;97.90
14031;DHT22;7090;49.436;8.490;2023-03-11T04:26:14;1.30;26.10
14031;DHT22;7090;49.436;8.490;2023-03-11T04:28:40;1.30;17.90
14031;DHT22;7090;49.436;8.490;2023-03-11T04:31:05;1.40;23.60
14031;DHT22;7090;49.436;8.490;2023-03-11T04:33:31;1.30;23.40
14031;DHT22;7090;49.436;8.490;2023-03-11T04:35:57;1.30;76.50
14031;DHT22;7090;49.436;8.490;2023-03-11T04:38:23;1.30;60.70
14031;DHT22;7090;49.436;8.490;2023-03-11T04:40:49;1.30;14.60
14031;DHT22;7090;49.436;8.490;2023-03-11T04:43:15;1.10;99.90
14031;DHT22;7090;49.436;8.490;2023-03-11T04:45:41;1.10;99.90
14031;DHT22;7090;49.436;8.490;2023-03-11T04:48:09;1.10;99.90
14031;DHT22;7090;49.436;8.490;2023-03-11T04:50:35;1.10;99.90
14031;DHT22;7090;49.436;8.490;2023-03-11T04:53:00;1.00;99.90
14031;DHT22;7090;49.436;8.490;2023-03-11T04:55:26;1.10;99.90
14031;DHT22;7090;49.436;8.490;2023-03-11T04:57:52;1.10;99.90
14031;DHT22;7090;49.436;8.490;2023-03-11T05:00:18;1.10;99.90
14031;DHT22;7090;49.436;8.490;2023-03-11T05:02:48;1.10;99.90
14031;DHT22;7090;49.436;8.490;2023-03-11T05:05:14;1.10;99.90
14031;DHT22;7090;49.436;8.490;2023-03-11T05:07:40;1.20;99.90
14031;DHT22;7090;49.436;8.490;2023-03-11T05:10:06;1.10;99.90
14031;DHT22;7090;49.436;8.490;2023-03-11T05:12:33;1.10;99.90
14031;DHT22;7090;49.436;8.490;2023-03-11T05:14:58;1.10;99.90
14031;DHT22;7090;49.436;8.490;2023-03-11T05:17:24;1.00;99.90
14031;DHT22;7090;49.436;8.490;2023-03-11T05:19:51;1.00;99.90
14031;DHT22;7090;49.436;8.490;2023-03-11T05:22:18;1.00;99.90
14031;DHT22;7090;49.436;8.490;2023-03-11T05:24:44;0.90;99.90
14031;DHT22;7090;49.436;8.490;2023-03-11T05:27:11;1.00;99.90
14031;DHT22;7090;49.436;8.490;2023-03-11T05:29:36;1.10;99.90
14031;DHT22;7090;49.436;8.490;2023-03-11T05:32:02;1.10;99.90
14031;DHT22;7090;49.436;8.490;2023-03-11T05:34:28;1.10;99.90
14031;DHT22;7090;49.436;8.490;2023-03-11T05:36:53;1.10;99.90
14031;DHT22;7090;49.436;8.490;2023-03-11T05:39:19;1.10;99.90
14031;DHT22;7090;49.436;8.490;2023-03-11T05:41:45;1.10;99.90
14031;DHT22;7090;49.436;8.490;2023-03-11T05:44:10;1.00;99.90
14031;DHT22;7090;49.436;8.490;2023-03-11T05:46:36;1.10;99.90
14031;DHT22;7090;49.436;8.490;2023-03-11T05:49:01;1.10;99.90
14031;DHT22;7090;49.436;8.490;2023-03-11T05:51:27;1.10;99.90
14031;DHT22;7090;49.436;8.490;2023-03-11T05:53:53;1.10;99.90
14031;DHT22;7090;49.436;8.490;2023-03-11T05:56:20;1.10;99.90
14031;DHT22;7090;49.436;8.490;2023-03-11T05:58:46;1.10;99.90
14031;DHT22;7090;49.436;8.490;2023-03-11T06:01:14;1.00;99.90
14031;DHT22;7090;49.436;8.490;2023-03-11T06:03:40;0.90;1.00
14031;DHT22;7090;49.436;8.490;2023-03-11T06:06:09;0.80;1.00
14031;DHT22;7090;49.436;8.490;2023-03-11T06:08:35;0.70;1.00
14031;DHT22;7090;49.436;8.490;2023-03-11T06:11:02;0.70;1.00
14031;DHT22;7090;49.436;8.490;2023-03-11T06:13:28;0.70;1.00
14031;DHT22;7090;49.436;8.490;2023-03-11T06:15:53;0.70;1.00
14031;DHT22;7090;49.436;8.490;2023-03-11T06:18:19;0.70;1.00
14031;DHT22;7090;49.436;8.490;2023-03-11T06:20:45;0.80;1.00
14031;DHT22;7090;49.436;8.490;2023-03-11T06:23:10;0.90;1.00
14031;DHT22;7090;49.436;8.490;2023-03-11T06:25:36;1.00;1.00
14031;DHT22;7090;49.436;8.490;2023-03-11T06:28:01;1.00;1.00
14031;DHT22;7090;49.436;8.490;2023-03-11T06:30:27;1.00;1.00
14031;DHT22;7090;49.436;8.490;2023-03-11T06:32:53;1.10;1.00
14031;DHT22;7090;49.436;8.490;2023-03-11T06:35:19;1.20;1.00
14031;DHT22;7090;49.436;8.490;2023-03-11T06:37:45;1.40;1.00
14031;DHT22;7090;49.436;8.490;2023-03-11T06:40:11;1.60;99.90
14031;DHT22;7090;49.436;8.490;2023-03-11T06:42:38;1.70;99.90
14031;DHT22;7090;49.436;8.490;2023-03-11T06:45:04;1.90;99.90
14031;DHT22;7090;49.436;8.490;2023-03-11T06:47:30;2.00;99.90
14031;DHT22;7090;49.436;8.490;2023-03-11T06:49:56;2.20;99.90
14031;DHT22;7090;49.436;8.490;2023-03-11T06:52:22;2.50;19.00
14031;DHT22;7090;49.436;8.490;2023-03-11T06:54:48;2.60;1.00
14031;DHT22;7090;49.436;8.490;2023-03-11T06:57:14;2.80;1.00
14031;DHT22;7090;49.436;8.490;2023-03-11T06:59:40;3.10;1.00
14031;DHT22;7090;49.436;8.490;2023-03-11T07:02:06;3.30;1.00
14031;DHT22;7090;49.436;8.490;2023-03-11T07:04:32;3.60;1.00
14031;DHT22;7090;49.436;8.490;2023-03-11T07:06:58;3.80;1.00
14031;DHT22;7090;49.436;8.490;2023-03-11T07:09:24;3.90;99.90
14031;DHT22;7090;49.436;8.490;2023-03-11T07:11:50;4.10;99.90
14031;DHT22;7090;49.436;8.490;2023-03-11T07:14:16;4.20;99.90
14031;DHT22;7090;49.436;8.490;2023-03-11T07:16:42;4.30;99.90
14031;DHT22;7090;49.436;8.490;2023-03-11T07:19:08;4.50;99.90
14031;DHT22;7090;49.436;8.490;2023-03-11T07:21:34;4.60;19.40
14031;DHT22;7090;49.436;8.490;2023-03-11T07:24:01;4.60;1.00
14031;DHT22;7090;49.436;8.490;2023-03-11T07:26:28;4.60;1.00
14031;DHT22;7090;49.436;8.490;2023-03-11T07:28:54;5.20;1.00
14031;DHT22;7090;49.436;8.490;2023-03-11T07:31:23;5.10;99.90
14031;DHT22;7090;49.436;8.490;2023-03-11T07:33:49;5.40;99.90
14031;DHT22;7090;49.436;8.490;2023-03-11T07:36:17;5.60;99.90
14031;DHT22;7090;49.436;8.490;2023-03-11T07:38:44;5.80;99.90
14031;DHT22;7090;49.436;8.490;2023-03-11T07:41:11;6.10;99.90
14031;DHT22;7090;49.436;8.490;2023-03-11T07:43:38;6.30;99.90
14031;DHT22;7090;49.436;8.490;2023-03-11T07:46:08;6.40;99.90
14031;DHT22;7090;49.436;8.490;2023-03-11T07:48:35;6.50;99.90
14031;DHT22;7090;49.436;8.490;2023-03-11T07:51:06;6.50;9.20
14031;DHT22;7090;49.436;8.490;2023-03-11T07:53:33;6.40;1.00
14031;DHT22;7090;49.436;8.490;2023-03-11T07:55:59;6.10;1.00
14031;DHT22;7090;49.436;8.490;2023-03-11T07:58:26;6.30;1.00
14031;DHT22;7090;49.436;8.490;2023-03-11T08:00:51;6.80;1.00
14031;DHT22;7090;49.436;8.490;2023-03-11T08:03:19;7.00;1.00
14031;DHT22;7090;49.436;8.490;2023-03-11T08:09:02;7.30;99.90
14031;DHT22;7090;49.436;8.490;2023-03-11T08:11:29;7.60;99.90
14031;DHT22;7090;49.436;8.490;2023-03-11T08:13:55;7.90;1.00
14031;DHT22;7090;49.436;8.490;2023-03-11T08:16:22;8.20;1.00
14031;DHT22;7090;49.436;8.490;2023-03-11T08:18:49;8.30;1.00
14031;DHT22;7090;49.436;8.490;2023-03-11T08:21:17;8.40;1.00
14031;DHT22;7090;49.436;8.490;2023-03-11T08:23:43;8.80;1.00
14031;DHT22;7090;49.436;8.490;2023-03-11T08:26:14;9.00;1.00
14031;DHT22;7090;49.436;8.490;2023-03-11T08:28:40;8.90;1.00
14031;DHT22;7090;49.436;8.490;2023-03-11T08:31:32;9.20;1.00
14031;DHT22;7090;49.436;8.490;2023-03-11T08:34:05;9.40;1.00
14031;DHT22;7090;49.436;8.490;2023-03-11T08:36:31;9.70;1.00
14031;DHT22;7090;49.436;8.490;2023-03-11T08:38:57;9.50;1.00
14031;DHT22;7090;49.436;8.490;2023-03-11T08:41:23;9.70;1.00
14031;DHT22;7090;49.436;8.490;2023-03-11T08:43:49;9.70;1.00
14031;DHT22;7090;49.436;8.490;2023-03-11T08:46:28;9.60;1.00
14031;DHT22;7090;49.436;8.490;2023-03-11T08:48:55;9.50;1.00
14031;DHT22;7090;49.436;8.490;2023-03-11T08:51:21;9.70;1.00
14031;DHT22;7090;49.436;8.490;2023-03-11T08:53:47;9.80;1.00
14031;DHT22;7090;49.436;8.490;2023-03-11T08:56:13;10.10;1.00
14031;DHT22;7090;49.436;8.490;2023-03-11T08:58:38;10.30;1.00
14031;DHT22;7090;49.436;8.490;2023-03-11T09:01:05;10.50;1.00
14031;DHT22;7090;49.436;8.490;2023-03-11T09:03:32;10.70;1.00
14031;DHT22;7090;49.436;8.490;2023-03-11T09:06:00;10.50;1.00
14031;DHT22;7090;49.436;8.490;2023-03-11T09:08:27;10.80;1.00
14031;DHT22;7090;49.436;8.490;2023-03-11T09:10:53;10.60;1.00
14031;DHT22;7090;49.436;8.490;2023-03-11T09:13:18;10.50;1.00
14031;DHT22;7090;49.436;8.490;2023-03-11T09:15:44;10.40;1.00
14031;DHT22;7090;49.436;8.490;2023-03-11T09:18:13;10.20;1.00
14031;DHT22;7090;49.436;8.490;2023-03-11T09:20:40;10.00;1.00
14031;DHT22;7090;49.436;8.490;2023-03-11T09:23:06;9.90;1.00
14031;DHT22;7090;49.436;8.490;2023-03-11T09:25:32;9.70;1.00
14031;DHT22;7090;49.436;8.490;2023-03-11T09:27:57;9.30;1.00
14031;DHT22;7090;49.436;8.490;2023-03-11T09:30:23;9.60;1.00
14031;DHT22;7090;49.436;8.490;2023-03-11T09:32:49;10.20;1.00
14031;DHT22;7090;49.436;8.490;2023-03-11T09:35:14;10.70;1.00
14031;DHT22;7090;49.436;8.490;2023-03-11T09:37:40;10.40;1.00
14031;DHT22;7090;49.436;8.490;2023-03-11T09:40:06;10.20;1.00
14031;DHT22;7090;49.436;8.490;2023-03-11T09:45:18;11.00;1.00
14031;DHT22;7090;49.436;8.490;2023-03-11T09:51:22;9.80;1.00
14031;DHT22;7090;49.436;8.490;2023-03-11T09:53:54;10.20;1.00
14031;DHT22;7090;49.436;8.490;2023-03-11T09:56:23;10.20;1.00
14031;DHT22;7090;49.436;8.490;2023-03-11T09:58:59;9.30;1.00
14031;DHT22;7090;49.436;8.490;2023-03-11T10:01:34;10.20;1.00
14031;DHT22;7090;49.436;8.490;2023-03-11T10:04:04;10.70;1.00
14031;DHT22;7090;49.436;8.490;2023-03-11T10:06:32;10.90;1.00
14031;DHT22;7090;49.436;8.490;2023-03-11T10:15:39;9.50;1.00
14031;DHT22;7090;49.436;8.490;2023-03-11T10:24:18;9.40;1.00
14031;DHT22;7090;49.436;8.490;2023-03-11T10:26:51;9.60;1.00
14031;DHT22;7090;49.436;8.490;2023-03-11T10:29:51;10.70;1.00
14031;DHT22;7090;49.436;8.490;2023-03-11T10:35:03;10.90;1.00
14031;DHT22;7090;49.436;8.490;2023-03-11T10:37:33;10.60;1.00
14031;DHT22;7090;49.436;8.490;2023-03-11T10:40:12;10.70;1.00
14031;DHT22;7090;49.436;8.490;2023-03-11T10:42:42;11.00;1.00
14031;DHT22;7090;49.436;8.490;2023-03-11T10:45:14;11.80;1.00
14031;DHT22;7090;49.436;8.490;2023-03-11T10:47:40;11.90;1.00
14031;DHT22;7090;49.436;8.490;2023-03-11T10:50:13;11.70;1.00
14031;DHT22;7090;49.436;8.490;2023-03-11T10:53:07;11.10;1.00
14031;DHT22;7090;49.436;8.490;2023-03-11T10:55:33;10.80;1.00
14031;DHT22;7090;49.436;8.490;2023-03-11T10:58:29;10.20;1.00
14031;DHT22;7090;49.436;8.490;2023-03-11T11:01:12;10.10;1.00
14031;DHT22;7090;49.436;8.490;2023-03-11T11:03:44;10.60;1.00
14031;DHT22;7090;49.436;8.490;2023-03-11T11:06:31;11.10;1.00
14031;DHT22;7090;49.436;8.490;2023-03-11T11:09:17;10.10;1.00
14031;DHT22;7090;49.436;8.490;2023-03-11T11:12:13;11.30;1.00
14031;DHT22;7090;49.436;8.490;2023-03-11T11:14:47;11.40;1.00
14031;DHT22;7090;49.436;8.490;2023-03-11T11:17:17;10.80;1.00
14031;DHT22;7090;49.436;8.490;2023-03-11T11:19:45;10.00;1.00
14031;DHT22;7090;49.436;8.490;2023-03-11T11:22:15;9.10;1.00
14031;DHT22;7090;49.436;8.490;2023-03-11T11:24:46;9.50;1.00
14031;DHT22;7090;49.436;8.490;2023-03-11T11:27:27;9.40;1.00
14031;DHT22;7090;49.436;8.490;2023-03-11T11:32:38;11.10;1.00
14031;DHT22;7090;49.436;8.490;2023-03-11T11:35:11;11.60;1.00
14031;DHT22;7090;49.436;8.490;2023-03-11T11:37:46;11.60;1.00
14031;DHT22;7090;49.436;8.490;2023-03-11T11:42:42;10.60;1.00
14031;DHT22;7090;49.436;8.490;2023-03-11T11:47:48;11.40;1.00
14031;DHT22;7090;49.436;8.490;2023-03-11T11:53:42;11.50;1.00
14031;DHT22;7090;49.436;8.490;2023-03-11T11:56:08;11.50;1.00
14031;DHT22;7090;49.436;8.490;2023-03-11T11:58:34;11.00;1.00
14031;DHT22;7090;49.436;8.490;2023-03-11T12:01:13;11.40;1.00
14031;DHT22;7090;49.436;8.490;2023-03-11T12:06:52;11.70;1.00
14031;DHT22;7090;49.436;8.490;2023-03-11T12:12:29;11.90;1.00
14031;DHT22;7090;49.436;8.490;2023-03-11T12:15:11;11.20;1.00
14031;DHT22;7090;49.436;8.490;2023-03-11T12:17:41;11.40;1.00
14031;DHT22;7090;49.436;8.490;2023-03-11T12:20:38;11.50;1.00
14031;DHT22;7090;49.436;8.490;2023-03-11T12:26:21;11.00;1.00
14031;DHT22;7090;49.436;8.490;2023-03-11T12:28:59;11.60;1.00
14031;DHT22;7090;49.436;8.490;2023-03-11T12:31:28;11.20;1.00
14031;DHT22;7090;49.436;8.490;2023-03-11T12:33:58;11.40;1.00
14031;DHT22;7090;49.436;8.490;2023-03-11T12:36:33;10.50;1.00
14031;DHT22;7090;49.436;8.490;2023-03-11T12:39:03;10.40;1.00
14031;DHT22;7090;49.436;8.490;2023-03-11T12:41:35;11.30;1.00
14031;DHT22;7090;49.436;8.490;2023-03-11T12:55:32;10.10;1.00
14031;DHT22;7090;49.436;8.490;2023-03-11T13:06:28;12.00;1.00
14031;DHT22;7090;49.436;8.490;2023-03-11T13:08:57;11.80;1.00
14031;DHT22;7090;49.436;8.490;2023-03-11T13:13:51;12.20;1.00
14031;DHT22;7090;49.436;8.490;2023-03-11T13:18:44;12.20;1.00
14031;DHT22;7090;49.436;8.490;2023-03-11T13:24:38;11.60;1.00
14031;DHT22;7090;49.436;8.490;2023-03-11T13:43:00;11.60;1.00
14031;DHT22;7090;49.436;8.490;2023-03-11T13:45:30;11.20;1.00
14031;DHT22;7090;49.436;8.490;2023-03-11T13:53:49;11.20;1.00
14031;DHT22;7090;49.436;8.490;2023-03-11T13:56:27;10.50;1.00
14031;DHT22;7090;49.436;8.490;2023-03-11T13:59:15;10.70;1.00
14031;DHT22;7090;49.436;8.490;2023-03-11T14:01:48;10.20;1.00
14031;DHT22;7090;49.436;8.490;2023-03-11T14:04:17;10.30;1.00
14031;DHT22;7090;49.436;8.490;2023-03-11T14:06:45;10.30;1.00
14031;DHT22;7090;49.436;8.490;2023-03-11T14:09:17;10.50;1.00
14031;DHT22;7090;49.436;8.490;2023-03-11T14:11:44;10.40;1.00
14031;DHT22;7090;49.436;8.490;2023-03-11T14:14:49;10.00;1.00
14031;DHT22;7090;49.436;8.490;2023-03-11T14:17:19;9.90;1.00
14031;DHT22;7090;49.436;8.490;2023-03-11T14:20:14;9.50;1.00
14031;DHT22;7090;49.436;8.490;2023-03-11T14:22:43;9.70;1.00
14031;DHT22;7090;49.436;8.490;2023-03-11T14:25:19;9.70;1.00
14031;DHT22;7090;49.436;8.490;2023-03-11T14:27:53;9.80;1.00
14031;DHT22;7090;49.436;8.490;2023-03-11T14:30:25;9.90;1.00
14031;DHT22;7090;49.436;8.490;2023-03-11T14:33:11;10.30;1.00
14031;DHT22;7090;49.436;8.490;2023-03-11T14:35:40;10.30;1.00
14031;DHT22;7090;49.436;8.490;2023-03-11T14:38:23;10.20;1.00
14031;DHT22;7090;49.436;8.490;2023-03-11T14:40:58;10.10;1.00
14031;DHT22;7090;49.436;8.490;2023-03-11T14:43:31;9.80;1.00
14031;DHT22;7090;49.436;8.490;2023-03-11T14:45:58;9.50;1.00
14031;DHT22;7090;49.436;8.490;2023-03-11T14:48:48;9.10;1.00
14031;DHT22;7090;49.436;8.490;2023-03-11T14:51:18;9.10;1.00
14031;DHT22;7090;49.436;8.490;2023-03-11T14:54:01;9.00;1.00
14031;DHT22;7090;49.436;8.490;2023-03-11T14:56:29;8.20;99.90
14031;DHT22;7090;49.436;8.490;2023-03-11T15:01:35;8.30;99.90
14031;DHT22;7090;49.436;8.490;2023-03-11T15:06:34;8.30;99.90
14031;DHT22;7090;49.436;8.490;2023-03-11T15:09:07;7.80;99.90
14031;DHT22;7090;49.436;8.490;2023-03-11T15:11:47;7.30;99.90
14031;DHT22;7090;49.436;8.490;2023-03-11T15:14:20;7.20;99.90
14031;DHT22;7090;49.436;8.490;2023-03-11T15:16:46;7.40;99.90
14031;DHT22;7090;49.436;8.490;2023-03-11T15:21:56;7.20;99.90
14031;DHT22;7090;49.436;8.490;2023-03-11T15:24:40;7.30;99.90
14031;DHT22;7090;49.436;8.490;2023-03-11T15:27:07;7.10;99.90
14031;DHT22;7090;49.436;8.490;2023-03-11T15:29:49;7.50;56.80
14031;DHT22;7090;49.436;8.490;2023-03-11T15:37:31;8.60;37.80
14031;DHT22;7090;49.436;8.490;2023-03-11T15:42:38;8.50;46.90
14031;DHT22;7090;49.436;8.490;2023-03-11T15:45:12;8.10;29.20
14031;DHT22;7090;49.436;8.490;2023-03-11T15:47:38;7.40;9.40
14031;DHT22;7090;49.436;8.490;2023-03-11T15:52:47;6.90;1.00
14031;DHT22;7090;49.436;8.490;2023-03-11T15:55:13;6.90;1.00
14031;DHT22;7090;49.436;8.490;2023-03-11T15:57:39;7.00;1.00
14031;DHT22;7090;49.436;8.490;2023-03-11T16:00:18;6.90;1.00
14031;DHT22;7090;49.436;8.490;2023-03-11T16:02:45;6.60;1.00
14031;DHT22;7090;49.436;8.490;2023-03-11T16:05:18;6.40;1.00
14031;DHT22;7090;49.436;8.490;2023-03-11T16:08:15;6.50;99.90
14031;DHT22;7090;49.436;8.490;2023-03-11T16:10:41;6.40;99.90
14031;DHT22;7090;49.436;8.490;2023-03-11T16:13:14;6.20;1.00
14031;DHT22;7090;49.436;8.490;2023-03-11T16:15:40;6.40;1.00
14031;DHT22;7090;49.436;8.490;2023-03-11T16:18:07;6.30;99.90
14031;DHT22;7090;49.436;8.490;2023-03-11T16:20:41;6.10;99.90
14031;DHT22;7090;49.436;8.490;2023-03-11T16:23:19;5.90;99.90
14031;DHT22;7090;49.436;8.490;2023-03-11T16:25:45;6.00;28.20
14031;DHT22;7090;49.436;8.490;2023-03-11T16:28:15;6.20;2.90
14031;DHT22;7090;49.436;8.490;2023-03-11T16:30:41;6.30;1.00
14031;DHT22;7090;49.436;8.490;2023-03-11T16:33:07;6.40;1.00
14031;DHT22;7090;49.436;8.490;2023-03-11T16:35:33;6.40;1.00
14031;DHT22;7090;49.436;8.490;2023-03-11T16:37:59;6.60;1.00
14031;DHT22;7090;49.436;8.490;2023-03-11T16:40:26;6.60;1.00
14031;DHT22;7090;49.436;8.490;2023-03-11T16:43:04;6.40;99.90
14031;DHT22;7090;49.436;8.490;2023-03-11T16:45:30;6.30;99.90
14031;DHT22;7090;49.436;8.490;2023-03-11T16:47:56;6.00;1.00
14031;DHT22;7090;49.436;8.490;2023-03-11T16:50:22;5.80;1.00
14031;DHT22;7090;49.436;8.490;2023-03-11T16:52:52;5.70;1.00
14031;DHT22;7090;49.436;8.490;2023-03-11T16:55:18;5.50;99.90
14031;DHT22;7090;49.436;8.490;2023-03-11T16:57:44;5.40;99.90
14031;DHT22;7090;49.436;8.490;2023-03-11T17:00:10;5.30;1.00
14031;DHT22;7090;49.436;8.490;2023-03-11T17:02:37;5.20;1.00
14031;DHT22;7090;49.436;8.490;2023-03-11T17:05:04;5.20;1.00
14031;DHT22;7090;49.436;8.490;2023-03-11T17:07:31;5.20;99.90
14031;DHT22;7090;49.436;8.490;2023-03-11T17:09:57;5.10;1.00
14031;DHT22;7090;49.436;8.490;2023-03-11T17:12:23;4.90;99.90
14031;DHT22;7090;49.436;8.490;2023-03-11T17:14:50;4.80;1.00
14031;DHT22;7090;49.436;8.490;2023-03-11T17:17:16;4.80;99.90
14031;DHT22;7090;49.436;8.490;2023-03-11T17:19:42;4.80;1.00
14031;DHT22;7090;49.436;8.490;2023-03-11T17:22:07;4.80;1.00
14031;DHT22;7090;49.436;8.490;2023-03-11T17:24:33;4.70;99.90
14031;DHT22;7090;49.436;8.490;2023-03-11T17:26:59;4.60;1.00
14031;DHT22;7090;49.436;8.490;2023-03-11T17:29:24;4.60;99.90
14031;DHT22;7090;49.436;8.490;2023-03-11T17:31:50;4.50;81.70
14031;DHT22;7090;49.436;8.490;2023-03-11T17:34:15;4.50;99.90
14031;DHT22;7090;49.436;8.490;2023-03-11T17:36:41;4.40;1.00
14031;DHT22;7090;49.436;8.490;2023-03-11T17:39:07;4.30;1.00
14031;DHT22;7090;49.436;8.490;2023-03-11T17:41:33;4.30;99.90
14031;DHT22;7090;49.436;8.490;2023-03-11T17:43:59;4.30;1.00
14031;DHT22;7090;49.436;8.490;2023-03-11T17:46:24;4.30;99.90
14031;DHT22;7090;49.436;8.490;2023-03-11T17:48:50;4.30;1.00
14031;DHT22;7090;49.436;8.490;2023-03-11T17:51:21;4.20;1.00
14031;DHT22;7090;49.436;8.490;2023-03-11T17:53:49;4.20;1.00
14031;DHT22;7090;49.436;8.490;2023-03-11T17:56:17;4.20;1.00
14031;DHT22;7090;49.436;8.490;2023-03-11T17:58:43;4.10;44.60
14031;DHT22;7090;49.436;8.490;2023-03-11T18:01:15;4.10;99.90
14031;DHT22;7090;49.436;8.490;2023-03-11T18:03:41;4.10;99.90
14031;DHT22;7090;49.436;8.490;2023-03-11T18:06:07;4.00;1.00
14031;DHT22;7090;49.436;8.490;2023-03-11T18:08:33;4.00;1.00
14031;DHT22;7090;49.436;8.490;2023-03-11T18:11:05;4.00;1.00
14031;DHT22;7090;49.436;8.490;2023-03-11T18:13:32;3.90;1.00
14031;DHT22;7090;49.436;8.490;2023-03-11T18:18:28;3.90;99.90
14031;DHT22;7090;49.436;8.490;2023-03-11T18:21:03;3.90;1.00